sensor_id;sensor_type;location;lat;lon;timestamp;P1;durP1;ratioP1;P2;durP2;ratioP2
24715;SDS011;12822;50.124;8.678;2023-07-31T00:00:35;5.45;;;2.25;;
24715;SDS011;12822;50.124;8.678;2023-07-31T00:03:01;8.77;;;2.40;;
24715;SDS011;12822;50.124;8.678;2023-07-31T00:05:27;8.65;;;2.20;;
24715;SDS011;12822;50.124;8.678;2023-07-31T00:07:53;6.53;;;2.10;;
24715;SDS011;12822;50.124;8.678;2023-07-31T00:10:19;7.90;;;1.90;;
24715;SDS011;12822;50.124;8.678;2023-07-31T00:12:46;5.72;;;2.08;;
24715;SDS011;12822;50.124;8.678;2023-07-31T00:15:13;5.68;;;2.08;;
24715;SDS011;12822;50.124;8.678;2023-07-31T00:17:39;11.35;;;2.30;;
24715;SDS011;12822;50.124;8.678;2023-07-31T00:20:05;8.18;;;2.00;;
24715;SDS011;12822;50.124;8.678;2023-07-31T00:22:31;8.68;;;2.17;;
24715;SDS011;12822;50.124;8.678;2023-07-31T00:24:57;7.38;;;2.25;;
24715;SDS011;12822;50.124;8.678;2023-07-31T00:27:24;10.50;;;2.35;;
24715;SDS011;12822;50.124;8.678;2023-07-31T00:29:50;9.38;;;2.63;;
24715;SDS011;12822;50.124;8.678;2023-07-31T00:32:16;9.23;;;2.28;;
24715;SDS011;12822;50.124;8.678;2023-07-31T00:34:42;5.72;;;2.47;;
24715;SDS011;12822;50.124;8.678;2023-07-31T00:37:08;7.18;;;2.20;;
24715;SDS011;12822;50.124;8.678;2023-07-31T00:39:34;12.00;;;2.17;;
24715;SDS011;12822;50.124;8.678;2023-07-31T00:42:01;7.38;;;2.08;;
24715;SDS011;12822;50.124;8.678;2023-07-31T00:44:27;6.97;;;2.25;;
24715;SDS011;12822;50.124;8.678;2023-07-31T00:46:53;8.68;;;2.50;;
24715;SDS011;12822;50.124;8.678;2023-07-31T00:49:20;6.93;;;2.28;;
24715;SDS011;12822;50.124;8.678;2023-07-31T00:51:46;7.75;;;2.35;;
24715;SDS011;12822;50.124;8.678;2023-07-31T00:54:12;8.45;;;1.90;;
24715;SDS011;12822;50.124;8.678;2023-07-31T00:56:38;7.05;;;2.28;;
24715;SDS011;12822;50.124;8.678;2023-07-31T00:59:04;8.93;;;2.33;;
24715;SDS011;12822;50.124;8.678;2023-07-31T01:01:30;6.75;;;2.22;;
24715;SDS011;12822;50.124;8.678;2023-07-31T01:03:56;10.15;;;2.55;;
24715;SDS011;12822;50.124;8.678;2023-07-31T01:06:25;11.88;;;2.28;;
24715;SDS011;12822;50.124;8.678;2023-07-31T01:09:02;4.90;;;2.03;;
24715;SDS011;12822;50.124;8.678;2023-07-31T01:11:29;6.18;;;2.13;;
24715;SDS011;12822;50.124;8.678;2023-07-31T01:13:56;9.02;;;2.50;;
24715;SDS011;12822;50.124;8.678;2023-07-31T01:16:22;8.23;;;2.47;;
24715;SDS011;12822;50.124;8.678;2023-07-31T01:18:48;10.82;;;2.80;;
24715;SDS011;12822;50.124;8.678;2023-07-31T01:26:44;10.77;;;2.35;;
24715;SDS011;12822;50.124;8.678;2023-07-31T01:29:55;10.00;;;2.20;;
24715;SDS011;12822;50.124;8.678;2023-07-31T01:32:01;9.10;;;2.03;;
24715;SDS011;12822;50.124;8.678;2023-07-31T01:34:28;10.30;;;2.45;;
24715;SDS011;12822;50.124;8.678;2023-07-31T01:36:55;9.02;;;2.22;;
24715;SDS011;12822;50.124;8.678;2023-07-31T01:39:25;10.27;;;2.70;;
24715;SDS011;12822;50.124;8.678;2023-07-31T01:41:51;7.57;;;2.30;;
24715;SDS011;12822;50.124;8.678;2023-07-31T01:44:17;7.95;;;2.13;;
24715;SDS011;12822;50.124;8.678;2023-07-31T01:46:43;9.02;;;2.58;;
24715;SDS011;12822;50.124;8.678;2023-07-31T01:49:09;7.32;;;2.35;;
24715;SDS011;12822;50.124;8.678;2023-07-31T01:51:35;10.88;;;2.63;;
24715;SDS011;12822;50.124;8.678;2023-07-31T01:54:01;9.27;;;2.50;;
24715;SDS011;12822;50.124;8.678;2023-07-31T01:56:27;7.50;;;2.33;;
24715;SDS011;12822;50.124;8.678;2023-07-31T01:58:53;13.38;;;2.97;;
24715;SDS011;12822;50.124;8.678;2023-07-31T02:01:19;9.80;;;2.20;;
24715;SDS011;12822;50.124;8.678;2023-07-31T02:03:45;8.65;;;2.30;;
24715;SDS011;12822;50.124;8.678;2023-07-31T02:06:11;6.72;;;2.28;;
24715;SDS011;12822;50.124;8.678;2023-07-31T02:08:37;9.50;;;2.28;;
24715;SDS011;12822;50.124;8.678;2023-07-31T02:11:03;6.88;;;2.20;;
24715;SDS011;12822;50.124;8.678;2023-07-31T02:13:29;12.25;;;2.53;;
24715;SDS011;12822;50.124;8.678;2023-07-31T02:15:55;7.00;;;2.40;;
24715;SDS011;12822;50.124;8.678;2023-07-31T02:18:21;7.47;;;2.58;;
24715;SDS011;12822;50.124;8.678;2023-07-31T02:20:50;8.10;;;2.45;;
24715;SDS011;12822;50.124;8.678;2023-07-31T02:23:17;5.82;;;2.63;;
24715;SDS011;12822;50.124;8.678;2023-07-31T02:25:43;5.50;;;2.10;;
24715;SDS011;12822;50.124;8.678;2023-07-31T02:28:09;7.60;;;2.38;;
24715;SDS011;12822;50.124;8.678;2023-07-31T02:30:35;5.07;;;2.33;;
24715;SDS011;12822;50.124;8.678;2023-07-31T02:33:01;6.47;;;2.17;;
24715;SDS011;12822;50.124;8.678;2023-07-31T02:35:27;10.30;;;2.50;;
24715;SDS011;12822;50.124;8.678;2023-07-31T02:37:53;7.57;;;2.50;;
24715;SDS011;12822;50.124;8.678;2023-07-31T02:40:19;6.35;;;2.63;;
24715;SDS011;12822;50.124;8.678;2023-07-31T02:42:45;10.57;;;3.00;;
24715;SDS011;12822;50.124;8.678;2023-07-31T02:45:11;7.00;;;2.60;;
24715;SDS011;12822;50.124;8.678;2023-07-31T02:47:38;11.13;;;2.85;;
24715;SDS011;12822;50.124;8.678;2023-07-31T02:50:04;9.05;;;2.78;;
24715;SDS011;12822;50.124;8.678;2023-07-31T02:52:30;9.52;;;2.85;;
24715;SDS011;12822;50.124;8.678;2023-07-31T02:54:57;8.52;;;2.50;;
24715;SDS011;12822;50.124;8.678;2023-07-31T02:57:23;9.15;;;2.70;;
24715;SDS011;12822;50.124;8.678;2023-07-31T02:59:49;9.73;;;2.70;;
24715;SDS011;12822;50.124;8.678;2023-07-31T03:02:15;6.70;;;2.40;;
24715;SDS011;12822;50.124;8.678;2023-07-31T03:04:41;8.23;;;2.42;;
24715;SDS011;12822;50.124;8.678;2023-07-31T03:07:07;6.47;;;2.75;;
24715;SDS011;12822;50.124;8.678;2023-07-31T03:09:33;8.25;;;2.60;;
24715;SDS011;12822;50.124;8.678;2023-07-31T03:11:59;9.82;;;2.83;;
24715;SDS011;12822;50.124;8.678;2023-07-31T03:14:25;9.68;;;2.70;;
24715;SDS011;12822;50.124;8.678;2023-07-31T03:16:51;7.15;;;2.55;;
24715;SDS011;12822;50.124;8.678;2023-07-31T03:19:17;6.50;;;2.90;;
24715;SDS011;12822;50.124;8.678;2023-07-31T03:21:43;7.28;;;2.38;;
24715;SDS011;12822;50.124;8.678;2023-07-31T03:24:09;7.68;;;2.67;;
24715;SDS011;12822;50.124;8.678;2023-07-31T03:26:37;6.85;;;2.58;;
24715;SDS011;12822;50.124;8.678;2023-07-31T03:29:03;6.60;;;2.60;;
24715;SDS011;12822;50.124;8.678;2023-07-31T03:31:29;8.98;;;3.03;;
24715;SDS011;12822;50.124;8.678;2023-07-31T03:33:55;8.07;;;2.95;;
24715;SDS011;12822;50.124;8.678;2023-07-31T03:36:21;8.15;;;3.28;;
24715;SDS011;12822;50.124;8.678;2023-07-31T03:38:47;10.23;;;2.63;;
24715;SDS011;12822;50.124;8.678;2023-07-31T03:41:13;8.57;;;2.55;;
24715;SDS011;12822;50.124;8.678;2023-07-31T03:43:39;5.45;;;2.55;;
24715;SDS011;12822;50.124;8.678;2023-07-31T03:46:05;10.13;;;3.15;;
24715;SDS011;12822;50.124;8.678;2023-07-31T03:48:31;7.78;;;2.72;;
24715;SDS011;12822;50.124;8.678;2023-07-31T03:50:57;10.20;;;2.90;;
24715;SDS011;12822;50.124;8.678;2023-07-31T03:53:23;11.88;;;3.55;;
24715;SDS011;12822;50.124;8.678;2023-07-31T03:55:49;7.68;;;2.92;;
24715;SDS011;12822;50.124;8.678;2023-07-31T03:58:15;9.73;;;3.40;;
24715;SDS011;12822;50.124;8.678;2023-07-31T04:00:41;8.65;;;3.00;;
24715;SDS011;12822;50.124;8.678;2023-07-31T04:03:07;9.88;;;2.78;;
24715;SDS011;12822;50.124;8.678;2023-07-31T04:05:33;8.18;;;2.90;;
24715;SDS011;12822;50.124;8.678;2023-07-31T04:07:59;9.25;;;3.28;;
24715;SDS011;12822;50.124;8.678;2023-07-31T04:10:25;13.35;;;3.03;;
24715;SDS011;12822;50.124;8.678;2023-07-31T04:12:51;10.35;;;2.72;;
24715;SDS011;12822;50.124;8.678;2023-07-31T04:15:17;10.10;;;3.33;;
24715;SDS011;12822;50.124;8.678;2023-07-31T04:17:45;10.15;;;2.92;;
24715;SDS011;12822;50.124;8.678;2023-07-31T04:20:11;10.88;;;3.38;;
24715;SDS011;12822;50.124;8.678;2023-07-31T04:22:37;8.27;;;3.72;;
24715;SDS011;12822;50.124;8.678;2023-07-31T04:25:03;11.52;;;3.03;;
24715;SDS011;12822;50.124;8.678;2023-07-31T04:27:29;9.95;;;3.40;;
24715;SDS011;12822;50.124;8.678;2023-07-31T04:29:55;10.07;;;3.17;;
24715;SDS011;12822;50.124;8.678;2023-07-31T04:32:21;10.85;;;2.88;;
24715;SDS011;12822;50.124;8.678;2023-07-31T04:34:47;8.98;;;2.58;;
24715;SDS011;12822;50.124;8.678;2023-07-31T04:37:13;9.70;;;3.30;;
24715;SDS011;12822;50.124;8.678;2023-07-31T04:39:39;8.10;;;2.78;;
24715;SDS011;12822;50.124;8.678;2023-07-31T04:42:05;13.50;;;3.63;;
24715;SDS011;12822;50.124;8.678;2023-07-31T04:44:31;9.00;;;3.05;;
24715;SDS011;12822;50.124;8.678;2023-07-31T04:46:57;8.10;;;3.47;;
24715;SDS011;12822;50.124;8.678;2023-07-31T04:49:23;7.13;;;2.53;;
24715;SDS011;12822;50.124;8.678;2023-07-31T04:51:49;8.07;;;3.20;;
24715;SDS011;12822;50.124;8.678;2023-07-31T04:54:15;9.68;;;3.00;;
24715;SDS011;12822;50.124;8.678;2023-07-31T04:56:42;10.23;;;3.35;;
24715;SDS011;12822;50.124;8.678;2023-07-31T04:59:08;9.43;;;2.75;;
24715;SDS011;12822;50.124;8.678;2023-07-31T05:01:34;14.20;;;3.10;;
24715;SDS011;12822;50.124;8.678;2023-07-31T05:04:00;11.27;;;2.92;;
24715;SDS011;12822;50.124;8.678;2023-07-31T05:06:26;11.38;;;3.30;;
24715;SDS011;12822;50.124;8.678;2023-07-31T05:08:52;15.35;;;3.67;;
24715;SDS011;12822;50.124;8.678;2023-07-31T05:11:18;9.18;;;2.85;;
24715;SDS011;12822;50.124;8.678;2023-07-31T05:13:47;12.52;;;3.38;;
24715;SDS011;12822;50.124;8.678;2023-07-31T05:16:13;10.18;;;3.40;;
24715;SDS011;12822;50.124;8.678;2023-07-31T05:18:39;11.18;;;3.15;;
24715;SDS011;12822;50.124;8.678;2023-07-31T05:21:05;14.15;;;3.10;;
24715;SDS011;12822;50.124;8.678;2023-07-31T05:23:31;9.95;;;2.97;;
24715;SDS011;12822;50.124;8.678;2023-07-31T05:26:04;12.05;;;3.17;;
24715;SDS011;12822;50.124;8.678;2023-07-31T05:28:30;9.63;;;3.42;;
24715;SDS011;12822;50.124;8.678;2023-07-31T05:31:03;8.73;;;3.38;;
24715;SDS011;12822;50.124;8.678;2023-07-31T05:33:29;12.38;;;3.50;;
24715;SDS011;12822;50.124;8.678;2023-07-31T05:35:56;8.45;;;3.30;;
24715;SDS011;12822;50.124;8.678;2023-07-31T05:38:22;8.48;;;2.85;;
24715;SDS011;12822;50.124;8.678;2023-07-31T05:40:48;12.10;;;3.38;;
24715;SDS011;12822;50.124;8.678;2023-07-31T05:43:14;10.75;;;3.80;;
24715;SDS011;12822;50.124;8.678;2023-07-31T05:45:43;9.60;;;3.45;;
24715;SDS011;12822;50.124;8.678;2023-07-31T05:48:09;7.65;;;3.30;;
24715;SDS011;12822;50.124;8.678;2023-07-31T05:50:35;10.73;;;3.70;;
24715;SDS011;12822;50.124;8.678;2023-07-31T05:53:04;12.32;;;3.47;;
24715;SDS011;12822;50.124;8.678;2023-07-31T05:55:30;9.05;;;3.38;;
24715;SDS011;12822;50.124;8.678;2023-07-31T05:57:56;11.20;;;3.25;;
24715;SDS011;12822;50.124;8.678;2023-07-31T06:00:22;11.05;;;3.53;;
24715;SDS011;12822;50.124;8.678;2023-07-31T06:02:48;10.27;;;3.28;;
24715;SDS011;12822;50.124;8.678;2023-07-31T06:05:14;11.55;;;3.25;;
24715;SDS011;12822;50.124;8.678;2023-07-31T06:07:40;9.38;;;3.55;;
24715;SDS011;12822;50.124;8.678;2023-07-31T06:10:06;8.73;;;3.05;;
24715;SDS011;12822;50.124;8.678;2023-07-31T06:12:33;9.00;;;3.45;;
24715;SDS011;12822;50.124;8.678;2023-07-31T06:14:59;9.90;;;3.30;;
24715;SDS011;12822;50.124;8.678;2023-07-31T06:17:25;8.68;;;2.92;;
24715;SDS011;12822;50.124;8.678;2023-07-31T06:19:56;12.75;;;3.25;;
24715;SDS011;12822;50.124;8.678;2023-07-31T06:22:22;13.45;;;3.22;;
24715;SDS011;12822;50.124;8.678;2023-07-31T06:24:48;13.60;;;3.42;;
24715;SDS011;12822;50.124;8.678;2023-07-31T06:27:14;13.77;;;3.83;;
24715;SDS011;12822;50.124;8.678;2023-07-31T06:29:40;7.22;;;2.95;;
24715;SDS011;12822;50.124;8.678;2023-07-31T06:32:06;11.27;;;3.47;;
24715;SDS011;12822;50.124;8.678;2023-07-31T06:34:33;11.35;;;3.40;;
24715;SDS011;12822;50.124;8.678;2023-07-31T06:36:59;10.80;;;2.90;;
24715;SDS011;12822;50.124;8.678;2023-07-31T06:39:25;8.77;;;3.10;;
24715;SDS011;12822;50.124;8.678;2023-07-31T06:41:51;16.65;;;3.33;;
24715;SDS011;12822;50.124;8.678;2023-07-31T06:44:17;12.80;;;3.20;;
24715;SDS011;12822;50.124;8.678;2023-07-31T06:46:43;14.48;;;3.60;;
24715;SDS011;12822;50.124;8.678;2023-07-31T06:49:09;13.88;;;3.22;;
24715;SDS011;12822;50.124;8.678;2023-07-31T06:51:35;6.68;;;3.47;;
24715;SDS011;12822;50.124;8.678;2023-07-31T06:54:03;10.52;;;3.28;;
24715;SDS011;12822;50.124;8.678;2023-07-31T06:56:29;12.23;;;3.45;;
24715;SDS011;12822;50.124;8.678;2023-07-31T06:58:55;8.68;;;3.42;;
24715;SDS011;12822;50.124;8.678;2023-07-31T07:01:21;12.23;;;3.38;;
24715;SDS011;12822;50.124;8.678;2023-07-31T07:03:47;7.00;;;2.80;;
24715;SDS011;12822;50.124;8.678;2023-07-31T07:06:15;10.75;;;3.35;;
24715;SDS011;12822;50.124;8.678;2023-07-31T07:08:41;9.40;;;3.10;;
24715;SDS011;12822;50.124;8.678;2023-07-31T07:11:07;12.25;;;3.40;;
24715;SDS011;12822;50.124;8.678;2023-07-31T07:13:33;9.77;;;3.00;;
24715;SDS011;12822;50.124;8.678;2023-07-31T07:15:59;14.32;;;3.90;;
24715;SDS011;12822;50.124;8.678;2023-07-31T07:18:25;9.05;;;3.00;;
24715;SDS011;12822;50.124;8.678;2023-07-31T07:20:52;10.93;;;2.70;;
24715;SDS011;12822;50.124;8.678;2023-07-31T07:23:18;7.45;;;3.22;;
24715;SDS011;12822;50.124;8.678;2023-07-31T07:25:44;12.27;;;4.03;;
24715;SDS011;12822;50.124;8.678;2023-07-31T07:28:11;9.60;;;3.13;;
24715;SDS011;12822;50.124;8.678;2023-07-31T07:30:37;9.50;;;3.00;;
24715;SDS011;12822;50.124;8.678;2023-07-31T07:33:03;16.40;;;4.15;;
24715;SDS011;12822;50.124;8.678;2023-07-31T07:35:29;11.95;;;3.35;;
24715;SDS011;12822;50.124;8.678;2023-07-31T07:37:55;9.95;;;3.47;;
24715;SDS011;12822;50.124;8.678;2023-07-31T07:40:21;11.68;;;3.15;;
24715;SDS011;12822;50.124;8.678;2023-07-31T07:42:47;7.38;;;3.13;;
24715;SDS011;12822;50.124;8.678;2023-07-31T07:45:13;10.55;;;3.45;;
24715;SDS011;12822;50.124;8.678;2023-07-31T08:20:19;9.63;;;3.25;;
24715;SDS011;12822;50.124;8.678;2023-07-31T08:22:45;13.70;;;3.67;;
24715;SDS011;12822;50.124;8.678;2023-07-31T08:25:11;7.22;;;3.25;;
24715;SDS011;12822;50.124;8.678;2023-07-31T08:27:37;12.35;;;3.80;;
24715;SDS011;12822;50.124;8.678;2023-07-31T08:30:03;9.57;;;3.55;;
24715;SDS011;12822;50.124;8.678;2023-07-31T08:32:29;9.40;;;3.35;;
24715;SDS011;12822;50.124;8.678;2023-07-31T08:34:55;10.05;;;3.55;;
24715;SDS011;12822;50.124;8.678;2023-07-31T08:37:21;17.70;;;4.25;;
24715;SDS011;12822;50.124;8.678;2023-07-31T08:39:47;19.27;;;3.00;;
24715;SDS011;12822;50.124;8.678;2023-07-31T08:42:13;6.35;;;3.00;;
24715;SDS011;12822;50.124;8.678;2023-07-31T08:44:39;8.73;;;3.22;;
24715;SDS011;12822;50.124;8.678;2023-07-31T08:47:06;10.23;;;3.63;;
24715;SDS011;12822;50.124;8.678;2023-07-31T08:49:32;7.25;;;3.03;;
24715;SDS011;12822;50.124;8.678;2023-07-31T08:51:59;6.53;;;3.22;;
24715;SDS011;12822;50.124;8.678;2023-07-31T08:54:25;10.20;;;3.58;;
24715;SDS011;12822;50.124;8.678;2023-07-31T08:56:55;8.98;;;3.25;;
24715;SDS011;12822;50.124;8.678;2023-07-31T08:59:22;10.80;;;3.22;;
24715;SDS011;12822;50.124;8.678;2023-07-31T09:01:49;10.05;;;3.60;;
24715;SDS011;12822;50.124;8.678;2023-07-31T09:04:16;7.45;;;2.97;;
24715;SDS011;12822;50.124;8.678;2023-07-31T09:06:42;7.80;;;3.30;;
24715;SDS011;12822;50.124;8.678;2023-07-31T09:09:09;9.90;;;3.10;;
24715;SDS011;12822;50.124;8.678;2023-07-31T09:11:35;10.73;;;3.20;;
24715;SDS011;12822;50.124;8.678;2023-07-31T09:14:01;9.90;;;3.47;;
24715;SDS011;12822;50.124;8.678;2023-07-31T09:16:33;8.90;;;3.33;;
24715;SDS011;12822;50.124;8.678;2023-07-31T09:18:59;9.20;;;3.20;;
24715;SDS011;12822;50.124;8.678;2023-07-31T09:21:28;7.28;;;3.15;;
24715;SDS011;12822;50.124;8.678;2023-07-31T09:23:54;11.98;;;3.20;;
24715;SDS011;12822;50.124;8.678;2023-07-31T09:28:56;13.27;;;3.15;;
24715;SDS011;12822;50.124;8.678;2023-07-31T09:31:41;6.03;;;2.55;;
24715;SDS011;12822;50.124;8.678;2023-07-31T09:34:07;7.28;;;3.28;;
24715;SDS011;12822;50.124;8.678;2023-07-31T09:36:39;8.80;;;3.15;;
24715;SDS011;12822;50.124;8.678;2023-07-31T09:39:05;8.05;;;2.83;;
24715;SDS011;12822;50.124;8.678;2023-07-31T09:41:36;11.60;;;3.83;;
24715;SDS011;12822;50.124;8.678;2023-07-31T09:44:03;8.77;;;3.15;;
24715;SDS011;12822;50.124;8.678;2023-07-31T09:46:29;9.48;;;2.95;;
24715;SDS011;12822;50.124;8.678;2023-07-31T09:49:08;10.10;;;3.05;;
24715;SDS011;12822;50.124;8.678;2023-07-31T09:51:35;10.80;;;3.78;;
24715;SDS011;12822;50.124;8.678;2023-07-31T09:54:04;10.18;;;3.22;;
24715;SDS011;12822;50.124;8.678;2023-07-31T09:56:30;15.05;;;3.85;;
24715;SDS011;12822;50.124;8.678;2023-07-31T09:59:00;7.43;;;3.22;;
24715;SDS011;12822;50.124;8.678;2023-07-31T10:01:26;9.40;;;3.50;;
24715;SDS011;12822;50.124;8.678;2023-07-31T10:03:52;13.32;;;3.58;;
24715;SDS011;12822;50.124;8.678;2023-07-31T10:06:18;13.48;;;4.18;;
24715;SDS011;12822;50.124;8.678;2023-07-31T10:08:44;10.02;;;3.38;;
24715;SDS011;12822;50.124;8.678;2023-07-31T10:11:13;10.63;;;3.75;;
24715;SDS011;12822;50.124;8.678;2023-07-31T10:13:40;11.23;;;3.40;;
24715;SDS011;12822;50.124;8.678;2023-07-31T10:16:07;10.38;;;3.80;;
24715;SDS011;12822;50.124;8.678;2023-07-31T10:18:33;7.72;;;3.58;;
24715;SDS011;12822;50.124;8.678;2023-07-31T10:21:01;9.55;;;3.13;;
24715;SDS011;12822;50.124;8.678;2023-07-31T10:23:27;7.55;;;3.30;;
24715;SDS011;12822;50.124;8.678;2023-07-31T10:25:53;8.48;;;3.30;;
24715;SDS011;12822;50.124;8.678;2023-07-31T10:28:20;11.75;;;3.50;;
24715;SDS011;12822;50.124;8.678;2023-07-31T10:30:47;6.40;;;3.00;;
24715;SDS011;12822;50.124;8.678;2023-07-31T10:33:16;8.93;;;3.72;;
24715;SDS011;12822;50.124;8.678;2023-07-31T10:35:42;7.72;;;3.40;;
24715;SDS011;12822;50.124;8.678;2023-07-31T10:38:11;8.10;;;3.67;;
24715;SDS011;12822;50.124;8.678;2023-07-31T10:40:38;10.13;;;3.80;;
24715;SDS011;12822;50.124;8.678;2023-07-31T10:43:06;9.00;;;3.30;;
24715;SDS011;12822;50.124;8.678;2023-07-31T10:45:41;10.95;;;3.70;;
24715;SDS011;12822;50.124;8.678;2023-07-31T10:48:15;7.88;;;3.13;;
24715;SDS011;12822;50.124;8.678;2023-07-31T10:50:48;9.63;;;3.33;;
24715;SDS011;12822;50.124;8.678;2023-07-31T10:53:28;7.47;;;3.45;;
24715;SDS011;12822;50.124;8.678;2023-07-31T10:56:02;10.07;;;3.88;;
24715;SDS011;12822;50.124;8.678;2023-07-31T10:58:29;9.38;;;3.45;;
24715;SDS011;12822;50.124;8.678;2023-07-31T11:00:57;10.77;;;4.05;;
24715;SDS011;12822;50.124;8.678;2023-07-31T11:03:27;10.70;;;3.30;;
24715;SDS011;12822;50.124;8.678;2023-07-31T11:06:00;10.02;;;3.53;;
24715;SDS011;12822;50.124;8.678;2023-07-31T11:08:29;10.25;;;3.78;;
24715;SDS011;12822;50.124;8.678;2023-07-31T11:13:34;9.95;;;3.60;;
24715;SDS011;12822;50.124;8.678;2023-07-31T11:16:04;8.65;;;3.60;;
24715;SDS011;12822;50.124;8.678;2023-07-31T11:18:30;11.80;;;3.72;;
24715;SDS011;12822;50.124;8.678;2023-07-31T11:20:56;7.88;;;3.67;;
24715;SDS011;12822;50.124;8.678;2023-07-31T11:23:22;9.48;;;3.72;;
24715;SDS011;12822;50.124;8.678;2023-07-31T11:25:49;8.23;;;3.78;;
24715;SDS011;12822;50.124;8.678;2023-07-31T11:28:16;7.55;;;3.33;;
24715;SDS011;12822;50.124;8.678;2023-07-31T11:30:42;8.77;;;3.60;;
24715;SDS011;12822;50.124;8.678;2023-07-31T11:33:09;9.70;;;3.53;;
24715;SDS011;12822;50.124;8.678;2023-07-31T11:35:36;11.48;;;3.83;;
24715;SDS011;12822;50.124;8.678;2023-07-31T11:38:02;11.93;;;4.38;;
24715;SDS011;12822;50.124;8.678;2023-07-31T11:40:28;12.95;;;3.80;;
24715;SDS011;12822;50.124;8.678;2023-07-31T11:42:55;7.43;;;3.85;;
24715;SDS011;12822;50.124;8.678;2023-07-31T11:45:25;12.63;;;3.75;;
24715;SDS011;12822;50.124;8.678;2023-07-31T11:47:53;12.38;;;3.45;;
24715;SDS011;12822;50.124;8.678;2023-07-31T11:50:19;14.07;;;3.53;;
24715;SDS011;12822;50.124;8.678;2023-07-31T11:52:46;11.27;;;4.03;;
24715;SDS011;12822;50.124;8.678;2023-07-31T11:55:13;9.77;;;3.63;;
24715;SDS011;12822;50.124;8.678;2023-07-31T11:57:40;9.18;;;3.70;;
24715;SDS011;12822;50.124;8.678;2023-07-31T12:00:08;8.65;;;3.58;;
24715;SDS011;12822;50.124;8.678;2023-07-31T12:02:36;8.30;;;2.92;;
24715;SDS011;12822;50.124;8.678;2023-07-31T12:05:02;7.45;;;3.53;;
24715;SDS011;12822;50.124;8.678;2023-07-31T12:07:42;10.52;;;4.10;;
24715;SDS011;12822;50.124;8.678;2023-07-31T12:10:08;7.90;;;2.75;;
24715;SDS011;12822;50.124;8.678;2023-07-31T12:12:34;7.25;;;3.40;;
24715;SDS011;12822;50.124;8.678;2023-07-31T12:15:00;7.75;;;2.95;;
24715;SDS011;12822;50.124;8.678;2023-07-31T12:17:26;7.78;;;3.47;;
24715;SDS011;12822;50.124;8.678;2023-07-31T12:19:52;6.28;;;3.67;;
24715;SDS011;12822;50.124;8.678;2023-07-31T12:22:21;11.13;;;3.83;;
24715;SDS011;12822;50.124;8.678;2023-07-31T12:24:47;8.70;;;3.45;;
24715;SDS011;12822;50.124;8.678;2023-07-31T12:27:14;7.07;;;3.63;;
24715;SDS011;12822;50.124;8.678;2023-07-31T12:29:43;8.50;;;3.78;;
24715;SDS011;12822;50.124;8.678;2023-07-31T12:32:19;8.40;;;3.40;;
24715;SDS011;12822;50.124;8.678;2023-07-31T12:34:45;9.32;;;3.25;;
24715;SDS011;12822;50.124;8.678;2023-07-31T12:37:11;9.55;;;3.80;;
24715;SDS011;12822;50.124;8.678;2023-07-31T12:39:37;13.10;;;4.70;;
24715;SDS011;12822;50.124;8.678;2023-07-31T12:42:04;9.57;;;3.88;;
24715;SDS011;12822;50.124;8.678;2023-07-31T12:44:30;9.40;;;4.00;;
24715;SDS011;12822;50.124;8.678;2023-07-31T12:46:56;10.35;;;3.63;;
24715;SDS011;12822;50.124;8.678;2023-07-31T12:49:22;7.55;;;3.70;;
24715;SDS011;12822;50.124;8.678;2023-07-31T12:51:48;8.77;;;3.30;;
24715;SDS011;12822;50.124;8.678;2023-07-31T12:54:14;14.77;;;3.83;;
24715;SDS011;12822;50.124;8.678;2023-07-31T12:56:40;9.05;;;3.58;;
24715;SDS011;12822;50.124;8.678;2023-07-31T12:59:06;10.90;;;3.70;;
24715;SDS011;12822;50.124;8.678;2023-07-31T13:01:32;11.25;;;3.30;;
24715;SDS011;12822;50.124;8.678;2023-07-31T13:03:58;11.60;;;3.65;;
24715;SDS011;12822;50.124;8.678;2023-07-31T13:06:25;5.90;;;3.50;;
24715;SDS011;12822;50.124;8.678;2023-07-31T13:08:51;6.85;;;3.60;;
24715;SDS011;12822;50.124;8.678;2023-07-31T13:11:19;11.48;;;3.88;;
24715;SDS011;12822;50.124;8.678;2023-07-31T13:13:45;8.70;;;3.50;;
24715;SDS011;12822;50.124;8.678;2023-07-31T13:16:11;12.38;;;3.60;;
24715;SDS011;12822;50.124;8.678;2023-07-31T13:18:37;7.95;;;3.28;;
24715;SDS011;12822;50.124;8.678;2023-07-31T13:21:03;11.65;;;3.70;;
24715;SDS011;12822;50.124;8.678;2023-07-31T13:23:32;9.23;;;3.25;;
24715;SDS011;12822;50.124;8.678;2023-07-31T13:25:58;10.05;;;3.42;;
24715;SDS011;12822;50.124;8.678;2023-07-31T13:28:24;8.23;;;3.63;;
24715;SDS011;12822;50.124;8.678;2023-07-31T13:30:50;7.32;;;3.60;;
24715;SDS011;12822;50.124;8.678;2023-07-31T13:33:16;11.00;;;3.70;;
24715;SDS011;12822;50.124;8.678;2023-07-31T13:35:42;14.48;;;3.63;;
24715;SDS011;12822;50.124;8.678;2023-07-31T13:38:08;13.32;;;4.03;;
24715;SDS011;12822;50.124;8.678;2023-07-31T13:40:34;7.65;;;3.40;;
24715;SDS011;12822;50.124;8.678;2023-07-31T13:43:00;7.72;;;3.50;;
24715;SDS011;12822;50.124;8.678;2023-07-31T13:45:27;7.82;;;3.58;;
24715;SDS011;12822;50.124;8.678;2023-07-31T13:47:53;7.13;;;3.22;;
24715;SDS011;12822;50.124;8.678;2023-07-31T13:50:19;9.70;;;3.40;;
24715;SDS011;12822;50.124;8.678;2023-07-31T13:52:47;9.10;;;3.35;;
24715;SDS011;12822;50.124;8.678;2023-07-31T13:55:13;8.90;;;3.28;;
24715;SDS011;12822;50.124;8.678;2023-07-31T13:57:39;6.82;;;3.35;;
24715;SDS011;12822;50.124;8.678;2023-07-31T14:00:05;9.77;;;3.60;;
24715;SDS011;12822;50.124;8.678;2023-07-31T14:02:31;5.90;;;3.47;;
24715;SDS011;12822;50.124;8.678;2023-07-31T14:04:57;5.28;;;3.05;;
24715;SDS011;12822;50.124;8.678;2023-07-31T14:07:23;8.77;;;2.83;;
24715;SDS011;12822;50.124;8.678;2023-07-31T14:09:50;7.15;;;2.97;;
24715;SDS011;12822;50.124;8.678;2023-07-31T14:12:15;7.63;;;3.42;;
24715;SDS011;12822;50.124;8.678;2023-07-31T14:14:41;5.75;;;3.15;;
24715;SDS011;12822;50.124;8.678;2023-07-31T14:17:07;6.00;;;3.05;;
24715;SDS011;12822;50.124;8.678;2023-07-31T14:19:37;9.32;;;3.33;;
24715;SDS011;12822;50.124;8.678;2023-07-31T14:22:03;10.98;;;3.78;;
24715;SDS011;12822;50.124;8.678;2023-07-31T14:24:29;8.43;;;2.75;;
24715;SDS011;12822;50.124;8.678;2023-07-31T14:26:55;6.30;;;3.00;;
24715;SDS011;12822;50.124;8.678;2023-07-31T14:29:21;11.60;;;3.10;;
24715;SDS011;12822;50.124;8.678;2023-07-31T14:31:49;7.00;;;3.40;;
24715;SDS011;12822;50.124;8.678;2023-07-31T14:34:15;8.68;;;3.58;;
24715;SDS011;12822;50.124;8.678;2023-07-31T14:36:41;9.90;;;3.20;;
24715;SDS011;12822;50.124;8.678;2023-07-31T14:39:07;10.10;;;3.58;;
24715;SDS011;12822;50.124;8.678;2023-07-31T14:41:33;10.45;;;3.25;;
24715;SDS011;12822;50.124;8.678;2023-07-31T14:43:59;7.30;;;3.38;;
24715;SDS011;12822;50.124;8.678;2023-07-31T14:46:25;11.98;;;3.80;;
24715;SDS011;12822;50.124;8.678;2023-07-31T14:48:51;6.60;;;2.97;;
24715;SDS011;12822;50.124;8.678;2023-07-31T14:51:17;10.27;;;3.40;;
24715;SDS011;12822;50.124;8.678;2023-07-31T14:53:43;8.90;;;3.55;;
24715;SDS011;12822;50.124;8.678;2023-07-31T14:56:11;8.18;;;3.42;;
24715;SDS011;12822;50.124;8.678;2023-07-31T14:58:37;10.13;;;3.90;;
24715;SDS011;12822;50.124;8.678;2023-07-31T15:01:03;11.23;;;3.60;;
24715;SDS011;12822;50.124;8.678;2023-07-31T15:03:29;7.22;;;3.65;;
24715;SDS011;12822;50.124;8.678;2023-07-31T15:05:56;14.57;;;3.92;;
24715;SDS011;12822;50.124;8.678;2023-07-31T15:08:22;6.22;;;3.40;;
24715;SDS011;12822;50.124;8.678;2023-07-31T15:10:48;9.85;;;3.55;;
24715;SDS011;12822;50.124;8.678;2023-07-31T15:13:14;11.05;;;3.53;;
24715;SDS011;12822;50.124;8.678;2023-07-31T15:15:40;7.10;;;3.33;;
24715;SDS011;12822;50.124;8.678;2023-07-31T15:18:06;7.05;;;3.58;;
24715;SDS011;12822;50.124;8.678;2023-07-31T15:20:32;8.40;;;3.20;;
24715;SDS011;12822;50.124;8.678;2023-07-31T15:22:59;11.55;;;3.90;;